Time;durP1;ratioP1;P1;durP2;ratioP2;P2;SDS_P1;SDS_P2;PMS_P1;PMS_P2;Temp;Humidity;BMP_temperature;BMP_pressure;BME280_temperature;BME280_humidity;BME280_pressure;Samples;Min_cycle;Max_cycle;Signal;HPM_P1;HPM_P2
2022/01/24 00:01:50;;;;;;;11.80;9.38;;;4.60;73.50;;;;;;5053001;28;20296;-57
2022/01/24 00:04:17;;;;;;;10.10;8.68;;;4.50;73.50;;;;;;5052973;28;20212;-57
2022/01/24 00:06:44;;;;;;;13.07;9.60;;;4.50;73.70;;;;;;5053021;28;20212;-56
2022/01/24 00:09:12;;;;;;;9.50;8.50;;;4.50;73.70;;;;;;5052900;28;20274;-57
2022/01/24 00:11:44;;;;;;;12.95;9.48;;;4.50;73.70;;;;;;5052705;28;20700;-57
2022/01/24 00:14:47;;;;;;;13.85;9.60;;;4.50;73.70;;;;;;5051592;28;20212;-57
2022/01/24 00:17:13;;;;;;;9.95;8.95;;;4.50;73.70;;;;;;5052610;28;20574;-57
2022/01/24 00:27:53;;;;;;;9.80;8.15;;;4.40;73.50;;;;;;5052731;28;20208;-57
2022/01/24 00:30:20;;;;;;;12.40;8.82;;;4.30;73.60;;;;;;5051384;28;20205;-57
2022/01/24 00:32:48;;;;;;;11.90;8.98;;;4.30;73.60;;;;;;5052418;28;20233;-57
2022/01/24 00:35:15;;;;;;;9.77;8.82;;;4.30;73.70;;;;;;5052694;28;20211;-56
2022/01/24 00:37:42;;;;;;;12.52;9.90;;;4.20;73.70;;;;;;5052663;28;20664;-57
2022/01/24 00:40:10;;;;;;;11.65;9.40;;;4.20;73.80;;;;;;5052653;28;20208;-57
2022/01/24 00:42:48;;;;;;;12.23;9.43;;;4.10;74.10;;;;;;5052563;28;20732;-55
2022/01/24 00:45:25;;;;;;;10.05;8.57;;;4.10;74.20;;;;;;5051342;28;20197;-56
2022/01/24 00:48:19;;;;;;;11.60;9.05;;;4.10;74.30;;;;;;5052436;28;20201;-57
2022/01/24 00:53:51;;;;;;;11.13;9.35;;;4.10;74.20;;;;;;4995960;28;20203;-57
2022/01/24 00:56:18;;;;;;;12.07;9.70;;;4.10;74.10;;;;;;5052587;28;20288;-56
2022/01/24 00:58:45;;;;;;;11.70;9.70;;;4.00;74.40;;;;;;5052441;28;20294;-56
2022/01/24 01:01:12;;;;;;;13.20;9.35;;;4.00;74.50;;;;;;5051104;28;20211;-56
2022/01/24 01:03:40;;;;;;;11.80;9.60;;;4.00;74.50;;;;;;5052290;28;20580;-57
2022/01/24 01:06:08;;;;;;;12.48;8.63;;;3.90;74.80;;;;;;5052398;28;20201;-57
2022/01/24 01:19:38;;;;;;;10.32;8.65;;;3.70;76.00;;;;;;5056005;28;20236;-57
2022/01/24 01:22:05;;;;;;;13.65;9.27;;;3.50;76.50;;;;;;5055831;28;20276;-56
2022/01/24 01:24:38;;;;;;;11.18;9.57;;;3.40;76.90;;;;;;5055878;28;20686;-57
2022/01/24 01:27:10;;;;;;;16.25;10.18;;;3.30;77.40;;;;;;5055825;28;20664;-57
2022/01/24 01:29:47;;;;;;;12.57;9.60;;;3.20;77.50;;;;;;5054653;28;20565;-57
2022/01/24 01:32:20;;;;;;;12.60;9.68;;;3.30;77.40;;;;;;5055761;28;20239;-57
2022/01/24 01:35:05;;;;;;;12.52;9.02;;;3.30;77.50;;;;;;5055718;28;20223;-57
2022/01/24 01:38:03;;;;;;;11.48;9.73;;;3.30;77.40;;;;;;5055686;28;20286;-56
2022/01/24 01:54:18;;;;;;;13.15;10.90;;;3.50;76.90;;;;;;5055587;28;20205;-59
2022/01/24 01:56:45;;;;;;;12.13;9.38;;;3.50;77.00;;;;;;5055486;28;20671;-59
2022/01/24 01:59:12;;;;;;;12.90;9.15;;;3.40;77.10;;;;;;5054385;28;20216;-58
2022/01/24 02:01:39;;;;;;;12.00;9.95;;;3.40;77.20;;;;;;5055117;28;20209;-58
2022/01/24 02:04:06;;;;;;;11.05;9.80;;;3.40;77.40;;;;;;5055076;28;20212;-58
2022/01/24 02:06:34;;;;;;;13.10;9.68;;;3.40;77.30;;;;;;5055206;28;20233;-59
2022/01/24 02:09:02;;;;;;;13.60;9.40;;;3.40;77.30;;;;;;5055237;28;20236;-57
2022/01/24 02:11:29;;;;;;;14.25;9.98;;;3.40;77.40;;;;;;5054783;28;20319;-59
2022/01/24 02:13:59;;;;;;;11.40;9.77;;;3.40;77.40;;;;;;5053836;28;20229;-57
2022/01/24 02:16:35;;;;;;;11.88;9.15;;;3.50;77.40;;;;;;5055106;28;20206;-58
2022/01/24 02:19:12;;;;;;;12.13;9.45;;;3.50;77.30;;;;;;5054843;28;20215;-57
2022/01/24 02:21:45;;;;;;;11.25;9.40;;;3.50;77.10;;;;;;5054398;28;20231;-58
2022/01/24 02:24:14;;;;;;;14.25;9.85;;;3.50;76.90;;;;;;5054922;28;20239;-59
2022/01/24 02:26:42;;;;;;;11.02;9.25;;;3.60;76.80;;;;;;5054958;28;20223;-58
2022/01/24 02:29:15;;;;;;;11.25;8.60;;;3.50;77.00;;;;;;5053526;28;20201;-60
2022/01/24 02:31:44;;;;;;;13.45;9.18;;;3.40;77.00;;;;;;5054656;28;20233;-58
2022/01/24 02:34:27;;;;;;;11.82;9.30;;;3.40;77.10;;;;;;5054426;28;20212;-55
2022/01/24 02:36:58;;;;;;;13.75;9.57;;;3.40;77.10;;;;;;5054643;28;20201;-58
2022/01/24 02:50:48;;;;;;;10.90;8.93;;;3.50;76.70;;;;;;5054424;28;20251;-58
2022/01/24 02:53:17;;;;;;;11.02;9.75;;;3.50;76.60;;;;;;5054176;28;20233;-58
2022/01/24 02:55:44;;;;;;;12.45;9.55;;;3.50;76.50;;;;;;5054359;28;20296;-56
2022/01/24 02:58:11;;;;;;;10.10;8.93;;;3.50;76.60;;;;;;5054092;28;20295;-55
2022/01/24 03:00:39;;;;;;;10.88;9.35;;;3.50;76.70;;;;;;5052992;28;20292;-58
2022/01/24 03:03:08;;;;;;;12.85;9.10;;;3.50;76.70;;;;;;5054040;28;20212;-56
2022/01/24 03:05:35;;;;;;;11.88;9.40;;;3.50;76.70;;;;;;5054127;28;20201;-58
2022/01/24 03:08:02;;;;;;;11.20;9.18;;;3.50;76.60;;;;;;5054038;28;20565;-57
2022/01/24 03:10:37;;;;;;;11.38;9.65;;;3.50;76.60;;;;;;5053816;28;20209;-58
2022/01/24 03:13:18;;;;;;;12.95;9.75;;;3.50;76.60;;;;;;5053774;28;20324;-58
2022/01/24 03:15:46;;;;;;;11.95;9.27;;;3.50;76.50;;;;;;5052662;28;20205;-59
2022/01/24 03:18:13;;;;;;;9.77;8.77;;;3.50;76.50;;;;;;5053704;28;20676;-55
2022/01/24 03:20:40;;;;;;;10.68;9.57;;;3.50;76.60;;;;;;5053704;28;20232;-58
2022/01/24 03:23:08;;;;;;;14.30;10.10;;;3.40;76.70;;;;;;5053615;28;20201;-58
2022/01/24 03:25:36;;;;;;;11.40;9.52;;;3.40;76.70;;;;;;5053651;28;20296;-57
2022/01/24 03:28:04;;;;;;;10.15;8.82;;;3.40;76.70;;;;;;5053610;28;20209;-58
2022/01/24 03:30:32;;;;;;;11.50;8.93;;;3.40;76.70;;;;;;5052300;28;20260;-58
2022/01/24 03:32:59;;;;;;;14.18;9.77;;;3.40;76.70;;;;;;5052757;28;20243;-57
2022/01/24 03:35:26;;;;;;;12.82;9.55;;;3.40;76.80;;;;;;5053343;28;20652;-58
2022/01/24 03:37:53;;;;;;;11.75;9.30;;;3.40;76.80;;;;;;5053361;28;20209;-57
2022/01/24 03:40:20;;;;;;;12.93;9.65;;;3.30;76.90;;;;;;5053664;28;20215;-59
2022/01/24 03:42:49;;;;;;;10.57;9.43;;;3.40;76.80;;;;;;5053365;28;20653;-57
2022/01/24 03:45:23;;;;;;;11.55;9.45;;;3.30;76.80;;;;;;5052069;28;20205;-57
2022/01/24 03:48:06;;;;;;;11.48;10.27;;;3.30;76.80;;;;;;5053003;28;20223;-59
2022/01/24 03:50:33;;;;;;;14.18;11.00;;;3.30;76.90;;;;;;5053265;28;20259;-56
2022/01/24 03:53:00;;;;;;;13.82;9.82;;;3.20;77.10;;;;;;5053098;28;20225;-56
2022/01/24 03:55:27;;;;;;;12.15;10.00;;;3.10;77.20;;;;;;5053111;28;20694;-57
2022/01/24 03:57:55;;;;;;;12.98;10.00;;;3.10;77.30;;;;;;5053317;28;20205;-58
2022/01/24 04:00:22;;;;;;;11.20;9.80;;;3.10;77.50;;;;;;5051872;28;20651;-57
2022/01/24 04:02:49;;;;;;;15.00;10.60;;;3.10;77.40;;;;;;5052934;28;20206;-59
2022/01/24 04:05:16;;;;;;;13.95;10.13;;;3.10;77.40;;;;;;5053045;28;20322;-59
2022/01/24 04:07:42;;;;;;;14.05;9.82;;;3.10;77.30;;;;;;5052955;28;20221;-57
2022/01/24 04:10:11;;;;;;;12.55;8.57;;;3.10;77.30;;;;;;5052964;28;20206;-55
2022/01/24 04:12:40;;;;;;;10.38;9.20;;;3.00;77.30;;;;;;5052844;28;20284;-59
2022/01/24 04:17:58;;;;;;;11.40;9.82;;;2.90;77.80;;;;;;5030098;28;20659;-54
2022/01/24 04:23:17;;;;;;;12.52;10.40;;;2.80;78.30;;;;;;5052898;28;20573;-58
2022/01/24 04:25:44;;;;;;;12.40;9.63;;;2.80;78.40;;;;;;5052706;28;20685;-59
2022/01/24 04:28:11;;;;;;;12.82;9.95;;;2.70;78.90;;;;;;5052905;28;20208;-58
2022/01/24 04:30:39;;;;;;;12.02;9.95;;;2.80;78.90;;;;;;5051485;28;20284;-59
2022/01/24 04:33:06;;;;;;;14.20;10.80;;;2.80;78.90;;;;;;5052589;28;20592;-56
2022/01/24 04:35:33;;;;;;;11.50;9.75;;;2.80;78.80;;;;;;5052710;28;20723;-58
2022/01/24 04:38:00;;;;;;;12.57;9.57;;;2.90;78.80;;;;;;5052786;28;20204;-59
2022/01/24 04:40:28;;;;;;;13.65;10.60;;;2.90;78.80;;;;;;5052668;28;20296;-55
2022/01/24 04:43:04;;;;;;;11.50;10.27;;;2.90;78.60;;;;;;5052807;28;20205;-59
2022/01/24 04:45:49;;;;;;;14.98;10.68;;;2.90;78.70;;;;;;5053555;28;20197;-57
2022/01/24 04:51:12;;;;;;;14.23;11.25;;;3.00;78.50;;;;;;5056776;28;20255;-59
2022/01/24 04:54:26;;;;;;;12.35;10.05;;;2.90;78.40;;;;;;5056508;28;20634;-57
2022/01/24 04:56:52;;;;;;;16.25;11.43;;;3.00;78.50;;;;;;5056260;28;20208;-55
2022/01/24 04:59:19;;;;;;;10.60;9.40;;;3.00;78.60;;;;;;5055184;28;20304;-58
2022/01/24 05:01:45;;;;;;;13.55;9.50;;;3.00;78.40;;;;;;5056467;28;20197;-57
2022/01/24 05:04:15;;;;;;;14.35;10.25;;;3.00;78.20;;;;;;5056227;28;20198;-55
2022/01/24 05:06:42;;;;;;;12.23;10.55;;;2.90;78.20;;;;;;5056255;28;20664;-59
2022/01/24 05:09:09;;;;;;;13.90;10.40;;;2.80;78.40;;;;;;5056450;28;20205;-58
2022/01/24 05:11:43;;;;;;;16.58;10.80;;;2.70;78.80;;;;;;5056058;28;20316;-55
2022/01/24 05:25:08;;;;;;;15.88;11.23;;;2.70;79.30;;;;;;5056036;28;20209;-59
2022/01/24 05:27:35;;;;;;;13.95;10.55;;;2.70;79.20;;;;;;5055791;28;20205;-59
2022/01/24 05:30:02;;;;;;;13.55;8.45;;;2.80;79.10;;;;;;5054516;28;20208;-59
2022/01/24 05:32:29;;;;;;;13.20;9.57;;;2.80;79.10;;;;;;5055637;28;20229;-58
2022/01/24 05:34:57;;;;;;;12.13;10.35;;;2.90;78.90;;;;;;5055622;28;20206;-59
2022/01/24 05:37:24;;;;;;;11.88;10.00;;;2.90;78.70;;;;;;5055740;28;20237;-59
2022/01/24 05:39:51;;;;;;;12.43;10.68;;;2.90;78.70;;;;;;5055612;28;20201;-58
2022/01/24 05:42:21;;;;;;;13.60;10.35;;;2.90;78.70;;;;;;5055859;28;20224;-57
2022/01/24 05:44:48;;;;;;;14.55;10.05;;;2.90;78.70;;;;;;5054158;28;20201;-59
2022/01/24 05:47:15;;;;;;;13.13;9.95;;;2.90;78.60;;;;;;5055594;28;20197;-58
2022/01/24 05:49:42;;;;;;;13.52;10.25;;;2.90;78.60;;;;;;5055392;28;20220;-59
2022/01/24 05:52:13;;;;;;;15.18;11.80;;;3.00;78.50;;;;;;5055539;28;20211;-59
2022/01/24 05:54:41;;;;;;;22.70;14.15;;;2.90;78.30;;;;;;5055396;28;20213;-59
2022/01/24 05:57:08;;;;;;;20.42;15.20;;;2.80;78.50;;;;;;5054646;28;20206;-58
2022/01/24 05:59:36;;;;;;;18.10;12.57;;;2.70;78.90;;;;;;5053926;28;20205;-59
2022/01/24 06:02:03;;;;;;;12.60;10.23;;;2.70;79.00;;;;;;5055251;28;20212;-59
2022/01/24 06:04:30;;;;;;;17.23;13.30;;;2.70;79.10;;;;;;5054737;28;20201;-58
2022/01/24 06:06:57;;;;;;;21.23;13.85;;;2.70;79.10;;;;;;5055142;28;20201;-59
2022/01/24 06:09:26;;;;;;;16.33;10.70;;;2.70;79.20;;;;;;5055212;28;20227;-57
2022/01/24 06:11:52;;;;;;;15.43;11.48;;;2.70;79.20;;;;;;5054943;28;20333;-59
2022/01/24 06:14:20;;;;;;;14.40;10.15;;;2.80;79.30;;;;;;5053517;28;20233;-57
2022/01/24 06:16:47;;;;;;;13.52;11.05;;;2.90;79.20;;;;;;5055114;28;20220;-58
2022/01/24 06:19:13;;;;;;;15.50;11.00;;;2.90;79.10;;;;;;5054735;28;20317;-58
2022/01/24 06:21:44;;;;;;;15.77;11.80;;;2.90;79.00;;;;;;5055045;28;20201;-58
2022/01/24 06:24:11;;;;;;;14.90;11.43;;;3.00;78.90;;;;;;5054734;28;20201;-58
2022/01/24 06:26:39;;;;;;;18.00;13.15;;;3.00;78.90;;;;;;5054655;28;20208;-59
2022/01/24 06:29:06;;;;;;;14.63;11.70;;;3.00;78.80;;;;;;5053446;28;20296;-57
2022/01/24 06:31:33;;;;;;;17.70;12.73;;;3.00;78.90;;;;;;5054914;28;20214;-58
2022/01/24 06:34:00;;;;;;;16.35;12.10;;;3.00;78.90;;;;;;5054597;28;20233;-57
2022/01/24 06:36:27;;;;;;;18.63;12.73;;;3.00;78.90;;;;;;5054538;28;20208;-58
2022/01/24 06:38:54;;;;;;;18.50;11.95;;;3.00;79.00;;;;;;5054478;28;20216;-58
2022/01/24 06:41:25;;;;;;;20.83;12.88;;;3.10;79.00;;;;;;5054444;28;20212;-58
2022/01/24 06:43:54;;;;;;;18.77;13.57;;;3.10;78.90;;;;;;5054127;28;20219;-54
2022/01/24 06:46:20;;;;;;;18.98;12.32;;;3.10;78.70;;;;;;5053907;28;20197;-58
2022/01/24 06:48:47;;;;;;;20.70;14.07;;;3.10;78.70;;;;;;5054161;28;20208;-57
2022/01/24 06:51:14;;;;;;;16.50;12.00;;;3.10;78.80;;;;;;5054329;28;20205;-59
2022/01/24 06:53:42;;;;;;;15.45;12.50;;;3.10;78.90;;;;;;5054254;28;20239;-58
2022/01/24 06:56:09;;;;;;;17.58;12.80;;;3.20;78.90;;;;;;5054171;28;20201;-58
2022/01/24 06:58:36;;;;;;;17.23;12.55;;;3.20;78.90;;;;;;5054274;28;20220;-59
2022/01/24 07:01:05;;;;;;;19.70;13.50;;;3.20;79.20;;;;;;5052718;28;20205;-58
2022/01/24 07:03:32;;;;;;;19.92;13.02;;;3.20;79.20;;;;;;5053661;28;20201;-57
2022/01/24 07:05:59;;;;;;;18.35;12.90;;;3.20;79.10;;;;;;5053902;28;20208;-57
2022/01/24 07:08:26;;;;;;;20.70;13.13;;;3.20;79.10;;;;;;5053791;28;20201;-56
2022/01/24 07:10:53;;;;;;;23.02;14.93;;;3.30;78.90;;;;;;5053664;28;20320;-59
2022/01/24 07:13:21;;;;;;;22.20;13.55;;;3.30;78.70;;;;;;5053803;28;20231;-59
2022/01/24 07:15:51;;;;;;;19.52;13.73;;;3.30;78.70;;;;;;5052427;28;20208;-58
2022/01/24 07:21:06;;;;;;;23.73;16.23;;;3.30;78.90;;;;;;5053705;28;20201;-57
2022/01/24 07:23:33;;;;;;;20.92;14.18;;;3.40;78.70;;;;;;5053630;28;20219;-59
2022/01/24 07:26:00;;;;;;;25.90;15.85;;;3.40;78.90;;;;;;5053360;28;20293;-59
2022/01/24 07:28:27;;;;;;;21.10;12.25;;;3.40;79.20;;;;;;5053365;28;20572;-58
2022/01/24 07:30:54;;;;;;;19.73;13.70;;;3.40;79.30;;;;;;5052241;28;20213;-57
2022/01/24 07:33:22;;;;;;;21.52;14.10;;;3.30;79.80;;;;;;5053154;28;20684;-57
2022/01/24 07:35:49;;;;;;;21.38;13.65;;;3.40;79.90;;;;;;5053213;28;20205;-58
2022/01/24 07:38:16;;;;;;;18.92;12.43;;;3.50;79.80;;;;;;5053345;28;20251;-58
2022/01/24 07:40:47;;;;;;;21.60;14.00;;;3.50;79.60;;;;;;5053180;28;20679;-55
2022/01/24 07:43:14;;;;;;;21.40;13.38;;;3.60;79.50;;;;;;5053341;28;20447;-54
2022/01/24 07:45:43;;;;;;;22.52;15.30;;;3.60;79.50;;;;;;5052024;28;20565;-55
2022/01/24 07:48:10;;;;;;;19.95;13.30;;;3.70;79.50;;;;;;5053062;28;20208;-55
2022/01/24 07:50:41;;;;;;;21.98;13.82;;;3.70;79.50;;;;;;5053015;28;20198;-55
2022/01/24 07:53:08;;;;;;;19.42;13.20;;;3.80;79.40;;;;;;5053023;28;20208;-55
2022/01/24 07:55:36;;;;;;;23.50;13.68;;;3.90;79.30;;;;;;5053059;28;20220;-54
2022/01/24 07:58:03;;;;;;;23.35;14.60;;;3.90;79.10;;;;;;5053054;28;20292;-54
2022/01/24 08:00:30;;;;;;;18.27;12.70;;;4.00;78.80;;;;;;5051553;28;20216;-58
2022/01/24 08:02:58;;;;;;;20.02;13.68;;;4.00;79.00;;;;;;5052929;28;20212;-55
2022/01/24 08:05:26;;;;;;;19.23;13.32;;;4.00;78.90;;;;;;5052766;28;20205;-55
2022/01/24 08:07:55;;;;;;;21.92;13.40;;;4.10;78.80;;;;;;5053028;28;20211;-58
2022/01/24 08:10:22;;;;;;;18.48;12.18;;;4.00;78.70;;;;;;5052852;28;20666;-55
2022/01/24 08:12:49;;;;;;;17.27;13.05;;;4.00;78.90;;;;;;5052741;28;20239;-56
2022/01/24 08:15:16;;;;;;;18.35;13.65;;;4.00;79.20;;;;;;5051294;28;20233;-55
2022/01/24 08:17:44;;;;;;;22.50;14.80;;;4.10;79.20;;;;;;5052733;28;20275;-58
2022/01/24 08:20:12;;;;;;;19.65;14.20;;;4.10;78.60;;;;;;5052131;28;20201;-57
2022/01/24 08:22:39;;;;;;;21.98;12.95;;;4.20;78.80;;;;;;5052789;28;20204;-59
2022/01/24 08:25:09;;;;;;;20.17;12.98;;;4.20;78.60;;;;;;5052680;28;20227;-57
2022/01/24 08:27:37;;;;;;;20.80;14.13;;;4.20;78.70;;;;;;5052554;28;20205;-54
2022/01/24 08:30:05;;;;;;;19.02;13.57;;;4.30;78.40;;;;;;5051302;28;20704;-56
2022/01/24 08:32:32;;;;;;;20.50;12.73;;;4.20;78.40;;;;;;5052653;28;20201;-59
2022/01/24 08:35:00;;;;;;;18.40;12.68;;;4.20;78.60;;;;;;5052560;28;20261;-54
2022/01/24 08:37:26;;;;;;;19.27;13.07;;;4.20;78.80;;;;;;5052479;28;20202;-56
2022/01/24 08:39:54;;;;;;;17.95;13.00;;;4.20;78.90;;;;;;5052478;28;20202;-59
2022/01/24 08:42:30;;;;;;;20.17;12.60;;;4.30;78.50;;;;;;5052529;28;20296;-55
2022/01/24 08:47:42;;;;;;;19.70;12.88;;;4.40;78.20;;;;;;5052650;28;20220;-55
2022/01/24 08:50:09;;;;;;;20.55;13.40;;;4.30;78.00;;;;;;5052354;28;20205;-54
2022/01/24 08:52:36;;;;;;;19.48;14.60;;;4.20;78.10;;;;;;5052422;28;20205;-55
2022/01/24 08:55:04;;;;;;;20.08;12.82;;;4.30;78.50;;;;;;5052325;28;20239;-59
2022/01/24 08:57:32;;;;;;;17.88;13.85;;;4.40;78.10;;;;;;5052457;28;20198;-59
2022/01/24 08:59:59;;;;;;;19.75;14.55;;;4.30;77.60;;;;;;5051141;28;20751;-60
2022/01/24 09:02:26;;;;;;;20.52;13.68;;;4.30;78.10;;;;;;5052250;28;20211;-60
2022/01/24 09:04:53;;;;;;;18.77;13.60;;;4.40;77.80;;;;;;5052386;28;20208;-58
2022/01/24 09:07:20;;;;;;;18.17;13.43;;;4.40;77.90;;;;;;5052200;28;20211;-59
2022/01/24 09:09:47;;;;;;;20.95;13.27;;;4.50;77.90;;;;;;5052289;28;20288;-60
2022/01/24 09:12:14;;;;;;;19.45;12.80;;;4.60;77.80;;;;;;5052143;28;20587;-59
2022/01/24 09:14:47;;;;;;;20.88;12.75;;;4.60;77.50;;;;;;5051012;28;20240;-58
2022/01/24 09:17:14;;;;;;;18.08;12.65;;;4.60;77.50;;;;;;5052104;28;20312;-59
2022/01/24 09:19:42;;;;;;;16.75;13.13;;;4.60;76.70;;;;;;5052091;28;20202;-60
2022/01/24 09:22:09;;;;;;;20.00;14.40;;;4.40;76.80;;;;;;5052112;28;20201;-60
2022/01/24 09:24:35;;;;;;;16.05;12.88;;;4.40;76.70;;;;;;5052068;28;20660;-58
2022/01/24 09:27:03;;;;;;;14.27;11.90;;;4.40;77.40;;;;;;5052071;28;20212;-60
2022/01/24 09:29:30;;;;;;;15.70;12.45;;;4.40;76.90;;;;;;5051037;28;20201;-58
2022/01/24 09:31:59;;;;;;;15.57;11.55;;;4.50;76.80;;;;;;5053419;28;20710;-59
2022/01/24 09:34:26;;;;;;;12.05;10.82;;;4.60;77.30;;;;;;5055414;28;20586;-59
2022/01/24 09:36:52;;;;;;;15.98;12.45;;;4.60;76.60;;;;;;5055634;28;20655;-58
2022/01/24 09:39:20;;;;;;;13.55;10.10;;;4.60;76.30;;;;;;5055560;28;20206;-58
2022/01/24 09:41:47;;;;;;;13.23;11.93;;;4.60;76.80;;;;;;5055550;28;20208;-58
2022/01/24 09:44:14;;;;;;;13.50;11.38;;;4.70;76.60;;;;;;5054247;28;20205;-58
2022/01/24 09:46:43;;;;;;;12.23;10.32;;;4.70;76.20;;;;;;5055420;28;20205;-57
2022/01/24 09:49:12;;;;;;;13.20;9.60;;;4.70;75.60;;;;;;5055155;28;20209;-59
2022/01/24 09:51:39;;;;;;;13.45;11.85;;;4.60;75.50;;;;;;5055344;28;20660;-58
2022/01/24 09:54:07;;;;;;;12.45;10.13;;;4.60;76.30;;;;;;5055248;28;20259;-59
2022/01/24 09:56:35;;;;;;;13.15;11.57;;;4.70;75.90;;;;;;5055434;28;20201;-59
2022/01/24 09:59:02;;;;;;;13.60;11.75;;;4.90;76.00;;;;;;5053935;28;20205;-56
2022/01/24 10:01:32;;;;;;;12.60;10.95;;;4.90;76.00;;;;;;5054926;28;20216;-59
2022/01/24 10:04:15;;;;;;;15.48;11.98;;;5.00;76.10;;;;;;5054893;28;20201;-59
2022/01/24 10:07:00;;;;;;;13.77;12.20;;;5.10;75.10;;;;;;5055015;28;20210;-59
2022/01/24 10:09:31;;;;;;;12.63;11.32;;;5.10;74.60;;;;;;5055115;28;20205;-60
2022/01/24 10:12:16;;;;;;;16.95;11.73;;;5.10;74.80;;;;;;5054668;28;20237;-59
2022/01/24 10:17:30;;;;;;;12.85;11.55;;;5.00;74.10;;;;;;5055054;28;20722;-59
2022/01/24 10:20:15;;;;;;;13.80;10.75;;;5.00;74.40;;;;;;5054774;28;20300;-58
2022/01/24 10:22:42;;;;;;;11.90;10.55;;;5.00;74.70;;;;;;5054893;28;20580;-60
2022/01/24 10:25:10;;;;;;;14.82;11.98;;;5.20;74.90;;;;;;5054955;28;20216;-56
2022/01/24 10:27:37;;;;;;;11.77;10.57;;;5.40;75.30;;;;;;5054752;28;20565;-58
2022/01/24 10:30:08;;;;;;;12.85;11.52;;;5.50;74.60;;;;;;5053624;28;20201;-58
2022/01/24 10:32:39;;;;;;;13.18;11.90;;;5.50;74.10;;;;;;5054624;28;20212;-58
2022/01/24 10:35:33;;;;;;;11.95;10.85;;;5.60;73.30;;;;;;5054501;28;20240;-60
2022/01/24 10:38:26;;;;;;;12.95;11.65;;;5.70;74.00;;;;;;5054552;28;20212;-59
2022/01/24 10:41:07;;;;;;;12.93;11.60;;;5.70;72.70;;;;;;5054509;28;20205;-60
2022/01/24 10:43:35;;;;;;;11.65;10.75;;;5.70;72.60;;;;;;5054246;28;20236;-58
2022/01/24 10:46:02;;;;;;;11.95;10.95;;;5.70;72.30;;;;;;5053163;28;20233;-59
2022/01/24 10:48:32;;;;;;;11.10;10.10;;;5.80;73.40;;;;;;5054301;28;20209;-60
2022/01/24 10:51:11;;;;;;;12.98;11.68;;;6.00;73.30;;;;;;5054201;28;20288;-60
2022/01/24 10:53:40;;;;;;;12.10;10.93;;;6.00;72.20;;;;;;5054179;28;20211;-56
2022/01/24 10:56:27;;;;;;;11.57;10.48;;;5.80;72.50;;;;;;5054175;28;20241;-59
2022/01/24 10:58:58;;;;;;;12.43;11.23;;;6.00;73.60;;;;;;5053926;28;20205;-57
2022/01/24 11:01:28;;;;;;;11.40;10.32;;;6.10;72.70;;;;;;5054122;28;20207;-58
2022/01/24 11:04:00;;;;;;;11.88;10.57;;;6.10;73.30;;;;;;5054027;28;20197;-59
2022/01/24 11:06:29;;;;;;;11.85;10.73;;;6.10;71.80;;;;;;5054115;28;20295;-58
2022/01/24 11:09:22;;;;;;;12.40;11.15;;;6.20;71.90;;;;;;5054006;28;20201;-58
2022/01/24 11:11:50;;;;;;;11.25;10.32;;;6.30;72.30;;;;;;5053589;28;20260;-60
2022/01/24 11:14:19;;;;;;;10.63;9.70;;;6.50;71.70;;;;;;5052616;28;20237;-59
2022/01/24 11:16:47;;;;;;;11.30;10.32;;;6.70;71.70;;;;;;5053651;28;20221;-59
2022/01/24 11:19:20;;;;;;;11.90;10.90;;;6.90;71.50;;;;;;5053766;28;20229;-61
2022/01/24 11:21:51;;;;;;;11.10;10.20;;;7.10;70.80;;;;;;5053683;28;20204;-60
2022/01/24 11:24:22;;;;;;;11.52;10.63;;;7.40;69.60;;;;;;5053726;28;20300;-59
2022/01/24 11:26:49;;;;;;;12.27;11.27;;;8.50;67.40;;;;;;5053627;28;20263;-63
2022/01/24 11:29:18;;;;;;;8.95;8.20;;;10.40;63.40;;;;;;5052240;28;20201;-63
2022/01/24 11:31:51;;;;;;;10.18;9.32;;;12.20;62.30;;;;;;5053634;28;20208;-61
2022/01/24 11:34:28;;;;;;;11.63;10.77;;;14.30;60.50;;;;;;5053312;28;20229;-60
2022/01/24 11:36:57;;;;;;;11.32;10.38;;;16.30;53.50;;;;;;5053409;28;20201;-61
2022/01/24 11:39:24;;;;;;;10.20;9.50;;;17.80;52.80;;;;;;5053395;28;20205;-62
2022/01/24 11:41:51;;;;;;;11.27;10.47;;;19.30;51.30;;;;;;5053240;28;20458;-61
2022/01/24 11:44:20;;;;;;;11.77;10.90;;;19.70;42.40;;;;;;5051827;28;20542;-61
2022/01/24 11:46:49;;;;;;;12.23;11.33;;;20.40;48.40;;;;;;5053268;28;20447;-61
2022/01/24 11:49:19;;;;;;;11.93;11.13;;;21.00;38.30;;;;;;5053120;28;20474;-61
2022/01/24 11:51:47;;;;;;;11.67;10.87;;;20.60;37.30;;;;;;5053226;28;20452;-61
2022/01/24 11:54:32;;;;;;;11.87;10.90;;;20.90;41.50;;;;;;5052288;28;20452;-61
2022/01/24 11:57:22;;;;;;;12.00;10.77;;;21.20;35.90;;;;;;5053097;28;20513;-61
2022/01/24 11:59:50;;;;;;;9.27;8.47;;;21.20;42.30;;;;;;5051779;28;20458;-61
2022/01/24 12:02:23;;;;;;;10.60;9.90;;;22.00;40.10;;;;;;5053104;28;20439;-62
2022/01/24 12:04:53;;;;;;;9.33;8.73;;;23.00;40.50;;;;;;5052810;28;20452;-59
2022/01/24 12:07:22;;;;;;;10.80;10.10;;;24.00;40.90;;;;;;5052980;28;20862;-61
2022/01/24 12:09:51;;;;;;;9.97;9.37;;;24.70;35.90;;;;;;5053100;28;20551;-61
2022/01/24 12:12:44;;;;;;;10.67;9.70;;;24.70;31.30;;;;;;5052819;28;20480;-61
2022/01/24 12:15:50;;;;;;;10.00;9.30;;;24.20;34.80;;;;;;5051289;28;20553;-61
2022/01/24 12:18:21;;;;;;;10.73;10.00;;;24.20;31.10;;;;;;5052854;28;20551;-61
2022/01/24 12:20:49;;;;;;;10.77;9.63;;;23.70;35.40;;;;;;5052658;28;20771;-61
2022/01/24 12:23:34;;;;;;;11.43;10.50;;;23.00;34.20;;;;;;5052683;28;20443;-59
2022/01/24 12:26:06;;;;;;;10.23;9.50;;;22.90;36.00;;;;;;5052764;28;20444;-61
2022/01/24 12:28:45;;;;;;;10.30;9.70;;;22.90;36.70;;;;;;5052745;28;20493;-59
2022/01/24 12:31:20;;;;;;;11.13;10.43;;;22.60;36.30;;;;;;5051422;28;20451;-55
2022/01/24 12:34:11;;;;;;;10.83;10.13;;;23.20;33.50;;;;;;5052518;28;20454;-56
2022/01/24 12:37:04;;;;;;;10.20;9.70;;;23.30;35.10;;;;;;5052484;28;20502;-62
2022/01/24 12:39:40;;;;;;;8.67;8.00;;;24.50;37.30;;;;;;5052571;28;20543;-62
2022/01/24 12:42:14;;;;;;;10.60;9.90;;;25.60;34.70;;;;;;5052593;28;20444;-62
2022/01/24 12:47:29;;;;;;;9.23;8.53;;;25.40;32.60;;;;;;5052597;28;20519;-61
2022/01/24 12:49:57;;;;;;;8.07;7.47;;;24.90;31.90;;;;;;5052428;28;20916;-61
2022/01/24 12:52:25;;;;;;;12.30;11.50;;;24.30;32.60;;;;;;5052462;28;20462;-56
2022/01/24 12:54:55;;;;;;;13.97;12.50;;;23.80;33.40;;;;;;5063808;28;20487;-56
2022/01/24 12:57:29;;;;;;;13.77;12.90;;;23.40;34.10;;;;;;5072504;28;20447;-55
2022/01/24 12:59:58;;;;;;;12.60;11.70;;;22.70;34.10;;;;;;5071132;28;20457;-55
2022/01/24 13:02:26;;;;;;;11.50;10.70;;;21.90;34.90;;;;;;5072318;28;20454;-57
2022/01/24 13:05:00;;;;;;;12.00;11.20;;;21.30;35.40;;;;;;5072154;28;20474;-55
2022/01/24 13:07:30;;;;;;;11.17;10.20;;;20.60;35.30;;;;;;5076027;28;20450;-59
2022/01/24 13:10:03;;;;;;;10.50;9.80;;;20.10;36.60;;;;;;5076236;28;20536;-59
2022/01/24 13:12:32;;;;;;;11.43;10.67;;;19.20;37.40;;;;;;5076122;28;20476;-59
2022/01/24 13:15:03;;;;;;;11.83;11.03;;;18.40;38.10;;;;;;5074648;28;20486;-59
2022/01/24 13:20:42;;;;;;;11.95;11.15;;;17.30;40.10;;;;;;5076128;28;20434;-57
2022/01/24 13:23:11;;;;;;;12.97;11.20;;;16.60;41.60;;;;;;5076085;28;20273;-60
2022/01/24 13:25:39;;;;;;;12.07;11.18;;;15.80;43.90;;;;;;5075961;28;20948;-58
2022/01/24 13:28:09;;;;;;;13.05;11.95;;;15.60;44.50;;;;;;5075568;28;20205;-58
2022/01/24 13:30:39;;;;;;;15.60;14.20;;;15.40;44.50;;;;;;5074699;28;20204;-60
2022/01/24 13:33:07;;;;;;;10.93;10.23;;;15.10;45.20;;;;;;5075783;28;20753;-61
2022/01/24 13:35:36;;;;;;;10.73;9.15;;;15.30;44.20;;;;;;5075577;28;20581;-61
2022/01/24 13:38:06;;;;;;;12.07;11.27;;;15.40;44.10;;;;;;5075616;28;20201;-60
2022/01/24 13:40:40;;;;;;;11.20;10.30;;;15.40;44.30;;;;;;5075645;28;20200;-58
2022/01/24 13:43:10;;;;;;;11.93;11.13;;;15.00;44.80;;;;;;5075674;28;20211;-59
2022/01/24 13:45:38;;;;;;;11.93;11.13;;;14.80;45.60;;;;;;5074065;28;20290;-57
2022/01/24 13:48:07;;;;;;;12.48;11.57;;;15.00;46.10;;;;;;5075577;28;20206;-59
2022/01/24 13:50:34;;;;;;;13.73;12.23;;;15.30;45.30;;;;;;5075306;28;20208;-56
2022/01/24 13:53:01;;;;;;;12.57;11.77;;;15.20;45.30;;;;;;5075561;28;20567;-60
2022/01/24 13:55:28;;;;;;;11.95;11.05;;;14.60;46.00;;;;;;5075234;28;20232;-61
2022/01/24 13:57:56;;;;;;;12.27;11.43;;;14.50;46.30;;;;;;5075326;28;20232;-57
2022/01/24 14:00:27;;;;;;;11.40;10.60;;;14.60;45.90;;;;;;5074090;28;20258;-58
2022/01/24 14:03:10;;;;;;;12.43;11.43;;;14.50;46.20;;;;;;5075189;28;20242;-56
2022/01/24 14:05:37;;;;;;;12.85;11.95;;;14.20;46.40;;;;;;5074958;28;20205;-57
2022/01/24 14:08:15;;;;;;;11.23;10.23;;;13.80;47.00;;;;;;5075200;28;20205;-58
2022/01/24 14:10:42;;;;;;;11.93;11.10;;;13.40;47.50;;;;;;5074937;28;20211;-58
2022/01/24 14:13:09;;;;;;;12.50;11.30;;;12.90;48.00;;;;;;5075078;28;20207;-58
2022/01/24 14:15:48;;;;;;;12.40;11.27;;;12.60;48.70;;;;;;5073647;28;20629;-57